Time;durP1;ratioP1;P1;durP2;ratioP2;P2;SDS_P1;SDS_P2;PMS_P1;PMS_P2;Temp;Humidity;BMP_temperature;BMP_pressure;BME280_temperature;BME280_humidity;BME280_pressure;Samples;Min_cycle;Max_cycle;Signal;HPM_P1;HPM_P2
2023/01/19 00:02:15;;;;;;;6.57;2.70;;;3.30;99.90;;;;;;5111925;28;20531;-61
2023/01/19 00:04:40;;;;;;;6.45;2.40;;;3.20;99.90;;;;;;5115429;28;20531;-61
2023/01/19 00:07:06;;;;;;;3.60;2.08;;;3.10;99.90;;;;;;5115568;28;20028;-61
2023/01/19 00:09:32;;;;;;;6.88;1.98;;;3.30;99.90;;;;;;5116191;28;20519;-61
2023/01/19 00:11:58;;;;;;;5.95;2.42;;;2.90;99.90;;;;;;5116242;28;20051;-61
2023/01/19 00:14:24;;;;;;;3.88;1.70;;;3.20;99.90;;;;;;5116014;28;20040;-61
2023/01/19 00:16:49;;;;;;;4.82;2.20;;;2.90;99.90;;;;;;5115434;28;20115;-61
2023/01/19 00:19:15;;;;;;;4.32;1.63;;;3.20;99.90;;;;;;5114214;28;20042;-61
2023/01/19 00:21:41;;;;;;;6.28;1.92;;;3.10;99.90;;;;;;5114232;28;20055;-61
2023/01/19 00:24:07;;;;;;;3.47;1.73;;;3.20;99.90;;;;;;5115619;28;20401;-61
2023/01/19 00:26:32;;;;;;;5.38;1.80;;;3.00;99.90;;;;;;5115687;28;20106;-61
2023/01/19 00:28:58;;;;;;;4.00;1.77;;;3.30;99.90;;;;;;5115317;28;20047;-61
2023/01/19 00:31:24;;;;;;;3.30;1.48;;;2.90;99.90;;;;;;5097393;28;20040;-61
2023/01/19 00:33:51;;;;;;;4.22;1.70;;;3.30;99.90;;;;;;5115242;28;20028;-62
2023/01/19 00:36:18;;;;;;;3.30;1.55;;;3.30;99.90;;;;;;5115556;28;20043;-61
2023/01/19 00:38:43;;;;;;;4.65;2.03;;;3.20;99.90;;;;;;5115288;28;20546;-61
2023/01/19 00:41:09;;;;;;;5.07;2.00;;;3.10;99.90;;;;;;5115052;28;20031;-61
2023/01/19 00:43:34;;;;;;;4.22;2.10;;;3.30;99.90;;;;;;5115280;28;20048;-61
2023/01/19 00:46:00;;;;;;;3.38;2.50;;;3.30;99.90;;;;;;5096202;28;20078;-61
2023/01/19 00:48:25;;;;;;;3.95;2.03;;;3.30;99.90;;;;;;5113430;28;20032;-61
2023/01/19 00:50:51;;;;;;;4.53;2.28;;;3.00;99.90;;;;;;5111349;28;20045;-61
2023/01/19 00:53:17;;;;;;;7.72;2.30;;;3.30;99.90;;;;;;5114326;28;20466;-61
2023/01/19 00:55:42;;;;;;;3.28;1.98;;;3.10;99.90;;;;;;5115384;28;20645;-62
2023/01/19 00:58:08;;;;;;;2.60;1.90;;;3.30;99.90;;;;;;5114971;28;20036;-61
2023/01/19 01:00:34;;;;;;;8.15;2.42;;;2.90;99.90;;;;;;5114809;28;20077;-61
2023/01/19 01:02:59;;;;;;;5.90;2.38;;;2.90;99.90;;;;;;5114860;28;20036;-61
2023/01/19 01:05:25;;;;;;;4.65;2.50;;;3.40;99.90;;;;;;5114890;28;20046;-61
2023/01/19 01:07:51;;;;;;;4.00;2.05;;;3.20;99.90;;;;;;5115015;28;20040;-61
2023/01/19 01:10:22;;;;;;;7.28;2.25;;;3.30;99.90;;;;;;5114827;28;20043;-61
2023/01/19 01:12:48;;;;;;;5.03;1.90;;;3.00;99.90;;;;;;5114647;28;20032;-62
2023/01/19 01:15:15;;;;;;;5.63;1.40;;;3.40;99.90;;;;;;5113367;28;20036;-61
2023/01/19 01:17:45;;;;;;;6.72;1.90;;;3.00;99.90;;;;;;5113189;28;20035;-61
2023/01/19 01:20:16;;;;;;;5.72;1.80;;;3.10;99.90;;;;;;5112901;28;20039;-61
2023/01/19 01:22:46;;;;;;;4.25;1.50;;;3.30;99.90;;;;;;5113124;28;20406;-61
2023/01/19 01:25:14;;;;;;;7.15;1.35;;;3.30;99.90;;;;;;5114554;28;20036;-61
2023/01/19 01:27:40;;;;;;;6.50;1.30;;;3.10;99.90;;;;;;5096102;28;20077;-61
2023/01/19 01:30:08;;;;;;;6.18;1.63;;;3.50;99.90;;;;;;5114361;28;20112;-61
2023/01/19 01:32:34;;;;;;;7.22;0.88;;;3.30;99.90;;;;;;5096046;28;20525;-61
2023/01/19 01:34:59;;;;;;;6.18;1.00;;;3.20;99.90;;;;;;5114271;28;20120;-61
2023/01/19 01:37:25;;;;;;;4.13;0.93;;;3.30;99.90;;;;;;5114265;28;20071;-60
2023/01/19 01:39:50;;;;;;;9.60;1.33;;;3.60;99.90;;;;;;5114216;28;20075;-61
2023/01/19 01:42:18;;;;;;;4.68;0.85;;;3.20;99.90;;;;;;5114330;28;20397;-61
2023/01/19 01:44:49;;;;;;;7.68;1.95;;;3.60;99.90;;;;;;5114589;28;20093;-61
2023/01/19 01:47:28;;;;;;;6.30;1.05;;;3.60;99.90;;;;;;5112681;28;20535;-62
2023/01/19 01:50:00;;;;;;;6.55;1.30;;;3.30;99.90;;;;;;5113945;28;20090;-61
2023/01/19 01:52:30;;;;;;;4.43;1.10;;;3.20;99.90;;;;;;5095860;28;20032;-61
2023/01/19 01:54:57;;;;;;;5.43;1.08;;;3.60;99.90;;;;;;5113654;28;20055;-61
2023/01/19 01:57:26;;;;;;;9.95;1.20;;;3.30;99.90;;;;;;5113817;28;20038;-61
2023/01/19 01:59:54;;;;;;;4.13;1.17;;;3.60;99.90;;;;;;5113855;28;20031;-61
2023/01/19 02:05:20;;;;;;;5.97;1.77;;;3.50;99.90;;;;;;5113996;28;20051;-61
2023/01/19 02:13:38;;;;;;;7.68;2.50;;;3.60;99.90;;;;;;5113333;28;20047;-61
2023/01/19 02:16:08;;;;;;;2.97;2.22;;;3.30;99.90;;;;;;5113558;28;20470;-61
2023/01/19 02:18:34;;;;;;;5.72;2.80;;;3.20;99.90;;;;;;5113294;28;20040;-61
2023/01/19 02:21:14;;;;;;;6.40;3.00;;;3.40;99.90;;;;;;5113332;28;20066;-61
2023/01/19 02:23:46;;;;;;;5.53;2.97;;;3.20;99.90;;;;;;5113329;28;20039;-61
2023/01/19 02:26:42;;;;;;;5.65;3.47;;;3.20;99.90;;;;;;5112921;28;20040;-61
2023/01/19 02:29:11;;;;;;;5.32;3.25;;;3.10;99.90;;;;;;5090370;28;20048;-61
2023/01/19 02:31:39;;;;;;;5.18;3.25;;;3.40;99.90;;;;;;5095027;28;20092;-61
2023/01/19 02:34:08;;;;;;;7.07;3.83;;;3.30;99.90;;;;;;5113338;28;20031;-61
2023/01/19 02:36:41;;;;;;;6.28;3.88;;;3.20;99.90;;;;;;5113049;28;20043;-61
2023/01/19 02:39:08;;;;;;;5.80;3.63;;;2.90;99.90;;;;;;5112960;28;20084;-62
2023/01/19 02:41:41;;;;;;;5.72;3.35;;;3.00;99.90;;;;;;5113135;28;20035;-62
2023/01/19 02:44:09;;;;;;;4.15;3.63;;;3.20;99.90;;;;;;5113013;28;20035;-61
2023/01/19 02:46:35;;;;;;;4.28;3.28;;;2.90;99.90;;;;;;5112626;28;20389;-61
2023/01/19 02:49:01;;;;;;;5.45;3.33;;;3.20;99.90;;;;;;5112528;28;20504;-61
2023/01/19 02:51:31;;;;;;;5.57;3.22;;;3.30;99.90;;;;;;5094539;28;20035;-62
2023/01/19 02:54:05;;;;;;;5.53;3.42;;;3.20;99.90;;;;;;5094237;28;20466;-61
2023/01/19 02:56:49;;;;;;;6.32;3.00;;;2.90;99.90;;;;;;5112887;28;20092;-62
2023/01/19 02:59:45;;;;;;;4.85;2.92;;;3.30;99.90;;;;;;5112864;28;20044;-62
2023/01/19 03:02:29;;;;;;;5.28;2.78;;;3.00;99.90;;;;;;5112550;28;20501;-62
2023/01/19 03:05:18;;;;;;;3.97;2.95;;;2.90;99.90;;;;;;5094264;28;20052;-62
2023/01/19 03:07:49;;;;;;;3.70;2.58;;;3.10;99.90;;;;;;5112412;28;20035;-62
2023/01/19 03:10:36;;;;;;;4.55;2.97;;;2.90;99.90;;;;;;5112439;28;20118;-62
2023/01/19 03:13:01;;;;;;;5.40;3.20;;;2.90;99.90;;;;;;5112419;28;20050;-61
2023/01/19 03:15:53;;;;;;;3.40;2.70;;;3.20;99.90;;;;;;5112469;28;20402;-62
2023/01/19 03:18:21;;;;;;;5.43;3.30;;;3.30;99.90;;;;;;5112217;28;20032;-62
2023/01/19 03:20:49;;;;;;;3.70;3.03;;;3.00;99.90;;;;;;5111997;28;20115;-62
2023/01/19 03:23:17;;;;;;;4.53;3.03;;;2.90;99.90;;;;;;5112299;28;20134;-62
2023/01/19 03:25:45;;;;;;;3.90;3.17;;;3.30;99.90;;;;;;5112156;28;20494;-62
2023/01/19 03:28:13;;;;;;;4.53;3.28;;;2.90;99.90;;;;;;5112221;28;20513;-63
2023/01/19 03:30:45;;;;;;;5.57;3.28;;;2.90;99.90;;;;;;5112146;28;20486;-62
2023/01/19 03:33:17;;;;;;;4.60;3.17;;;3.10;99.90;;;;;;5112076;28;20089;-63
2023/01/19 03:35:48;;;;;;;4.65;3.28;;;2.90;99.90;;;;;;5112348;28;20074;-62
2023/01/19 03:38:23;;;;;;;4.65;3.38;;;3.20;99.90;;;;;;5111051;28;20494;-62
2023/01/19 03:40:52;;;;;;;4.90;3.20;;;3.30;99.90;;;;;;5112131;28;20048;-62
2023/01/19 03:43:18;;;;;;;6.45;3.53;;;3.00;99.90;;;;;;5077096;28;20123;-62
2023/01/19 03:45:44;;;;;;;5.80;3.60;;;3.40;99.90;;;;;;5111795;28;20454;-62
2023/01/19 03:48:11;;;;;;;6.75;3.70;;;3.20;99.90;;;;;;5112038;28;20071;-62
2023/01/19 03:50:37;;;;;;;10.30;3.97;;;2.90;99.90;;;;;;5112051;28;20043;-62
2023/01/19 03:53:13;;;;;;;4.60;3.15;;;3.40;99.90;;;;;;5111844;28;20537;-62
2023/01/19 03:55:44;;;;;;;4.68;3.10;;;3.20;99.90;;;;;;5111900;28;20600;-62
2023/01/19 03:58:10;;;;;;;8.30;4.30;;;3.30;99.90;;;;;;5112236;28;20054;-61
2023/01/19 04:00:36;;;;;;;6.55;3.13;;;3.30;99.90;;;;;;5112079;28;20039;-62
2023/01/19 04:03:11;;;;;;;8.10;3.65;;;3.50;99.90;;;;;;5111652;28;20035;-62
2023/01/19 04:05:36;;;;;;;5.82;3.75;;;3.00;99.90;;;;;;5111883;28;20042;-62
2023/01/19 04:08:02;;;;;;;6.13;3.67;;;3.10;99.90;;;;;;5093655;28;20035;-61
2023/01/19 04:10:27;;;;;;;4.75;3.53;;;3.50;99.90;;;;;;5111504;28;20379;-62
2023/01/19 04:12:58;;;;;;;5.57;4.07;;;3.20;99.90;;;;;;5111440;28;20184;-62
2023/01/19 04:15:24;;;;;;;7.93;4.10;;;3.50;99.90;;;;;;5111708;28;20040;-62
2023/01/19 04:17:49;;;;;;;7.57;4.45;;;3.50;99.90;;;;;;5111908;28;20112;-62
2023/01/19 04:20:15;;;;;;;7.72;4.35;;;3.20;99.90;;;;;;5111602;28;20488;-62
2023/01/19 04:22:41;;;;;;;7.10;3.95;;;3.20;99.90;;;;;;5111765;28;20472;-62
2023/01/19 04:25:08;;;;;;;9.73;4.28;;;3.10;99.90;;;;;;5111313;28;20385;-62
2023/01/19 04:27:35;;;;;;;7.57;4.25;;;3.30;99.90;;;;;;5111680;28;20081;-61
2023/01/19 04:30:00;;;;;;;5.88;3.83;;;3.50;99.90;;;;;;5111516;28;20031;-62
2023/01/19 04:32:26;;;;;;;4.95;3.55;;;3.20;99.90;;;;;;5111496;28;20379;-62
2023/01/19 04:34:52;;;;;;;4.75;3.35;;;3.50;99.90;;;;;;5111364;28;20077;-62
2023/01/19 04:37:17;;;;;;;5.40;3.33;;;3.00;99.90;;;;;;5111537;28;20035;-61
2023/01/19 04:39:43;;;;;;;6.90;3.67;;;3.00;99.90;;;;;;5112202;28;20086;-62
2023/01/19 04:42:08;;;;;;;6.72;3.58;;;3.50;99.90;;;;;;5111412;28;20127;-62
2023/01/19 04:44:34;;;;;;;7.25;3.80;;;3.30;99.90;;;;;;5111662;28;20046;-63
2023/01/19 04:47:00;;;;;;;7.18;3.30;;;3.50;99.90;;;;;;5111328;28;20403;-62
2023/01/19 04:49:26;;;;;;;6.65;3.25;;;3.40;99.90;;;;;;5112817;28;20035;-61
2023/01/19 04:51:52;;;;;;;8.10;3.72;;;3.10;99.90;;;;;;5115146;28;20051;-62
2023/01/19 04:54:19;;;;;;;6.35;4.40;;;3.30;99.90;;;;;;5114914;28;20036;-62
2023/01/19 04:56:45;;;;;;;6.53;3.60;;;3.40;99.90;;;;;;5115077;28;20089;-61
2023/01/19 04:59:11;;;;;;;9.55;3.75;;;2.90;99.90;;;;;;5114794;28;20485;-62
2023/01/19 05:01:37;;;;;;;7.38;3.90;;;3.00;99.90;;;;;;5114822;28;20485;-62
2023/01/19 05:04:05;;;;;;;4.32;3.00;;;2.80;99.90;;;;;;5114656;28;20050;-61
2023/01/19 05:06:31;;;;;;;6.32;3.17;;;2.90;99.90;;;;;;5114794;28;20520;-61
2023/01/19 05:08:57;;;;;;;7.60;3.47;;;2.90;99.90;;;;;;5114724;28;20031;-61
2023/01/19 05:11:22;;;;;;;7.40;3.08;;;3.40;99.90;;;;;;5114752;28;20035;-62
2023/01/19 05:13:48;;;;;;;6.68;3.10;;;3.40;99.90;;;;;;5114796;28;20119;-62
2023/01/19 05:16:14;;;;;;;6.60;2.65;;;3.30;99.90;;;;;;5114553;28;20044;-62
2023/01/19 05:18:39;;;;;;;6.82;2.67;;;3.30;99.90;;;;;;5114304;28;20492;-61
2023/01/19 05:21:06;;;;;;;7.88;2.85;;;3.30;99.90;;;;;;5114380;28;20055;-62
2023/01/19 05:23:32;;;;;;;4.43;1.90;;;3.40;99.90;;;;;;5114072;28;20186;-62
2023/01/19 05:26:01;;;;;;;8.05;2.42;;;2.90;99.90;;;;;;5114221;28;20043;-61
2023/01/19 05:28:28;;;;;;;;;;;3.10;99.90;;;;;;5115007;28;20039;-62
2023/01/19 05:30:54;;;;;;;7.03;2.55;;;3.30;99.90;;;;;;5114366;28;19915;-63
2023/01/19 05:33:20;;;;;;;3.85;1.60;;;2.90;99.90;;;;;;5114199;28;20584;-62
2023/01/19 05:35:49;;;;;;;7.65;1.27;;;3.00;99.90;;;;;;5114119;28;20035;-61
2023/01/19 05:38:14;;;;;;;7.22;1.20;;;3.30;99.90;;;;;;5114115;28;20390;-61
2023/01/19 05:40:40;;;;;;;5.95;1.00;;;2.80;99.90;;;;;;5114373;28;20043;-62
2023/01/19 05:43:06;;;;;;;4.88;0.90;;;3.20;99.90;;;;;;5113973;28;20035;-62
2023/01/19 05:45:32;;;;;;;6.70;0.82;;;2.90;99.90;;;;;;5096002;28;20092;-61
2023/01/19 05:47:57;;;;;;;7.88;1.00;;;3.00;99.90;;;;;;5113851;28;20615;-61
2023/01/19 05:50:23;;;;;;;1.58;0.60;;;3.20;99.90;;;;;;5114026;28;20054;-62
2023/01/19 05:52:48;;;;;;;7.75;0.90;;;3.10;99.90;;;;;;5113568;28;20061;-61
2023/01/19 05:55:15;;;;;;;4.93;0.70;;;3.20;99.90;;;;;;5113946;28;20062;-62
2023/01/19 05:57:41;;;;;;;4.78;0.93;;;3.20;99.90;;;;;;5113708;28;20564;-63
2023/01/19 06:00:08;;;;;;;3.83;0.85;;;3.30;99.90;;;;;;5113845;28;20039;-61
2023/01/19 06:02:33;;;;;;;7.32;1.10;;;3.10;99.90;;;;;;5113223;28;20092;-62
2023/01/19 06:04:59;;;;;;;5.88;1.50;;;3.20;99.90;;;;;;5114019;28;20035;-61
2023/01/19 06:07:25;;;;;;;4.97;0.95;;;3.00;99.90;;;;;;5113106;28;20043;-61
2023/01/19 06:09:50;;;;;;;6.13;1.25;;;3.10;99.90;;;;;;5113550;28;20035;-62
2023/01/19 06:12:16;;;;;;;4.80;1.10;;;3.10;99.90;;;;;;5113545;28;20416;-61
2023/01/19 06:14:43;;;;;;;7.10;1.25;;;3.30;99.90;;;;;;5113556;28;20048;-62
2023/01/19 06:17:09;;;;;;;8.57;1.27;;;3.10;99.90;;;;;;5113242;28;20058;-62
2023/01/19 06:19:34;;;;;;;7.55;1.38;;;3.10;99.90;;;;;;5113446;28;20089;-61
2023/01/19 06:22:00;;;;;;;4.10;1.00;;;3.30;99.90;;;;;;5113095;28;20071;-61
2023/01/19 06:24:26;;;;;;;7.60;2.92;;;3.10;99.90;;;;;;5113150;28;20446;-61
2023/01/19 06:26:53;;;;;;;3.45;0.90;;;3.40;99.90;;;;;;5113411;28;20393;-61
2023/01/19 06:29:19;;;;;;;8.45;1.45;;;3.20;99.90;;;;;;5113186;28;20043;-61
2023/01/19 06:31:44;;;;;;;2.40;0.88;;;3.40;99.90;;;;;;5112861;28;20043;-62
2023/01/19 06:34:10;;;;;;;9.60;1.55;;;3.40;99.90;;;;;;5095211;28;20126;-62
2023/01/19 06:36:36;;;;;;;6.60;1.00;;;3.20;99.90;;;;;;5094985;28;20043;-61
2023/01/19 06:39:04;;;;;;;6.78;1.15;;;3.20;99.90;;;;;;5112916;28;20039;-62
2023/01/19 06:41:31;;;;;;;4.82;1.45;;;3.30;99.90;;;;;;5113333;28;20111;-61
2023/01/19 06:43:56;;;;;;;8.73;1.80;;;3.40;99.90;;;;;;5112996;28;20044;-62
2023/01/19 06:46:22;;;;;;;6.57;1.35;;;3.30;99.90;;;;;;5113009;28;20046;-61
2023/01/19 06:48:48;;;;;;;10.43;1.60;;;3.30;99.90;;;;;;5112840;28;20043;-62
2023/01/19 06:51:13;;;;;;;14.63;2.13;;;3.20;99.90;;;;;;5112593;28;20101;-62
2023/01/19 06:53:39;;;;;;;4.38;1.40;;;3.10;99.90;;;;;;5112691;28;20382;-61
2023/01/19 06:56:06;;;;;;;10.15;1.55;;;3.10;99.90;;;;;;5112873;28;20051;-62
2023/01/19 06:58:33;;;;;;;10.07;1.77;;;3.10;99.90;;;;;;5112659;28;20542;-61
2023/01/19 07:01:04;;;;;;;9.18;2.03;;;3.20;99.90;;;;;;5112727;28;20039;-62
2023/01/19 07:03:30;;;;;;;7.22;1.45;;;3.10;99.90;;;;;;5112209;28;20040;-62
2023/01/19 07:05:56;;;;;;;8.85;1.67;;;3.10;99.90;;;;;;5112777;28;20044;-61
2023/01/19 07:08:22;;;;;;;7.53;1.25;;;3.20;99.90;;;;;;5112493;28;20393;-61
2023/01/19 07:10:48;;;;;;;7.18;1.23;;;3.30;99.90;;;;;;5112338;28;20035;-61
2023/01/19 07:13:14;;;;;;;9.25;1.58;;;3.40;99.90;;;;;;5111597;28;20044;-62
2023/01/19 07:15:40;;;;;;;7.45;0.93;;;3.30;99.90;;;;;;5093580;28;20477;-61
2023/01/19 07:18:06;;;;;;;4.85;1.02;;;3.40;99.90;;;;;;5112159;28;20031;-62
2023/01/19 07:20:36;;;;;;;4.88;1.15;;;3.30;99.90;;;;;;5112268;28;20046;-61
2023/01/19 07:23:02;;;;;;;8.75;1.10;;;3.30;99.90;;;;;;5112218;28;20048;-62
2023/01/19 07:25:29;;;;;;;10.65;1.73;;;3.60;99.90;;;;;;5112695;28;20110;-60
2023/01/19 07:27:59;;;;;;;9.07;1.17;;;3.50;99.90;;;;;;5112324;28;20031;-59
2023/01/19 07:30:25;;;;;;;11.10;1.42;;;3.70;99.90;;;;;;5112184;28;20039;-59
2023/01/19 07:32:53;;;;;;;11.95;1.83;;;3.60;99.90;;;;;;5111981;28;20083;-59
2023/01/19 07:35:20;;;;;;;12.23;1.60;;;3.40;99.90;;;;;;5112417;28;20039;-59
2023/01/19 07:37:46;;;;;;;9.95;1.55;;;3.60;99.90;;;;;;5112266;28;20031;-60
2023/01/19 07:40:12;;;;;;;13.13;1.75;;;3.70;99.90;;;;;;5111915;28;20572;-60
2023/01/19 07:42:37;;;;;;;8.60;1.50;;;3.40;99.90;;;;;;5111764;28;20118;-59
2023/01/19 07:45:04;;;;;;;17.55;1.85;;;3.40;99.90;;;;;;5111971;28;20032;-59
2023/01/19 07:47:29;;;;;;;11.43;1.70;;;3.70;99.90;;;;;;5077177;28;20462;-59
2023/01/19 07:49:55;;;;;;;18.90;2.70;;;3.70;99.90;;;;;;5112223;28;20042;-60
2023/01/19 07:52:21;;;;;;;16.30;2.25;;;3.70;99.90;;;;;;5093927;28;20039;-60
2023/01/19 07:54:49;;;;;;;14.63;2.00;;;3.80;99.90;;;;;;5111991;28;20069;-60
2023/01/19 07:57:16;;;;;;;16.90;2.28;;;3.80;99.90;;;;;;5111994;28;20501;-60
2023/01/19 07:59:42;;;;;;;14.80;2.30;;;4.00;99.90;;;;;;5093759;28;20078;-60
2023/01/19 08:02:09;;;;;;;9.10;2.50;;;3.90;99.90;;;;;;5112196;28;20064;-60
2023/01/19 08:04:34;;;;;;;7.65;1.27;;;4.00;99.90;;;;;;5111991;28;20396;-60
2023/01/19 08:07:00;;;;;;;7.03;1.50;;;4.10;99.90;;;;;;5112071;28;20035;-60
2023/01/19 08:09:26;;;;;;;8.27;1.33;;;3.90;99.90;;;;;;5112006;28;20047;-60
2023/01/19 08:11:52;;;;;;;10.95;1.40;;;4.00;99.90;;;;;;5111802;28;20047;-60
2023/01/19 08:14:17;;;;;;;7.97;1.33;;;3.90;99.90;;;;;;5111320;28;20043;-59
2023/01/19 08:16:43;;;;;;;12.23;2.03;;;4.00;99.90;;;;;;5112423;28;20036;-59
2023/01/19 08:19:09;;;;;;;5.95;1.55;;;4.00;99.90;;;;;;5111847;28;20481;-60
2023/01/19 08:21:35;;;;;;;14.35;2.15;;;4.10;99.90;;;;;;5111367;28;20055;-60
2023/01/19 08:24:01;;;;;;;16.92;2.42;;;4.10;99.90;;;;;;5094411;28;20066;-59
2023/01/19 08:26:32;;;;;;;11.00;1.95;;;4.30;99.90;;;;;;5115461;28;20043;-59
2023/01/19 08:29:00;;;;;;;18.00;2.50;;;4.20;99.90;;;;;;5115770;28;20481;-60
2023/01/19 08:31:26;;;;;;;11.48;1.77;;;4.40;99.90;;;;;;5115906;28;20132;-59
2023/01/19 08:33:52;;;;;;;8.55;2.22;;;4.40;99.90;;;;;;5115976;28;20102;-59
2023/01/19 08:36:18;;;;;;;12.90;2.35;;;4.40;99.90;;;;;;5096675;28;20101;-59
2023/01/19 08:38:44;;;;;;;12.30;2.47;;;4.40;99.90;;;;;;5115330;28;20031;-59
2023/01/19 08:41:10;;;;;;;18.02;2.53;;;4.30;99.90;;;;;;5115216;28;20470;-59
2023/01/19 08:43:39;;;;;;;18.90;2.53;;;4.30;99.90;;;;;;5115373;28;20047;-59
2023/01/19 08:46:05;;;;;;;16.60;2.55;;;4.30;99.90;;;;;;5097140;28;20035;-59
2023/01/19 08:48:31;;;;;;;13.80;2.28;;;4.30;99.90;;;;;;5097096;28;20051;-59
2023/01/19 08:50:58;;;;;;;12.35;2.63;;;4.40;99.90;;;;;;5115040;28;20040;-59
2023/01/19 08:53:24;;;;;;;15.75;2.33;;;4.40;99.90;;;;;;5115016;28;20075;-58
2023/01/19 08:55:56;;;;;;;16.77;3.03;;;4.40;99.90;;;;;;5115111;28;20132;-59
2023/01/19 08:58:22;;;;;;;14.85;1.90;;;4.40;99.90;;;;;;5115017;28;20082;-59
2023/01/19 09:00:48;;;;;;;12.07;2.10;;;4.40;99.90;;;;;;5114977;28;20039;-59
2023/01/19 09:03:13;;;;;;;13.18;2.20;;;4.40;99.90;;;;;;5114893;28;20040;-59
2023/01/19 09:05:39;;;;;;;19.52;3.28;;;4.40;99.90;;;;;;5115013;28;20043;-59
2023/01/19 09:08:12;;;;;;;16.95;2.25;;;4.40;99.90;;;;;;5096276;28;20055;-59
2023/01/19 09:10:43;;;;;;;14.00;2.30;;;4.40;99.90;;;;;;5114624;28;20082;-59
2023/01/19 09:13:11;;;;;;;13.45;2.47;;;4.30;99.90;;;;;;5114355;28;20474;-59
2023/01/19 09:15:38;;;;;;;19.75;2.53;;;4.40;99.90;;;;;;5114807;28;20036;-59
2023/01/19 09:18:05;;;;;;;14.20;2.03;;;4.30;99.90;;;;;;5114628;28;20032;-59
2023/01/19 09:20:33;;;;;;;20.38;2.42;;;4.20;99.90;;;;;;5114528;28;20089;-60
2023/01/19 09:22:59;;;;;;;11.15;2.38;;;4.20;99.90;;;;;;5114532;28;20047;-59
2023/01/19 09:25:25;;;;;;;16.27;2.50;;;4.10;99.90;;;;;;5114544;28;20077;-59
2023/01/19 09:27:51;;;;;;;11.80;2.47;;;4.10;99.90;;;;;;5114431;28;20122;-59
2023/01/19 09:30:18;;;;;;;11.32;2.28;;;4.10;99.90;;;;;;5114459;28;20501;-59
2023/01/19 09:32:44;;;;;;;13.52;2.28;;;4.10;99.90;;;;;;5114371;28;20036;-59
2023/01/19 09:35:10;;;;;;;13.27;1.98;;;4.00;99.90;;;;;;5113937;28;20107;-59
2023/01/19 09:37:35;;;;;;;14.07;2.63;;;4.10;99.90;;;;;;5113746;28;20042;-59
2023/01/19 09:40:02;;;;;;;8.57;1.75;;;4.00;99.90;;;;;;5114573;28;20412;-59
2023/01/19 09:42:53;;;;;;;12.38;2.00;;;4.10;99.90;;;;;;5114427;28;20051;-59
2023/01/19 09:45:26;;;;;;;11.00;2.42;;;4.10;99.90;;;;;;5114229;28;20440;-59
2023/01/19 09:47:53;;;;;;;19.35;2.25;;;4.20;99.90;;;;;;5113817;28;20023;-59
2023/01/19 09:50:35;;;;;;;7.90;1.80;;;4.30;99.90;;;;;;5113868;28;20036;-59
2023/01/19 09:53:19;;;;;;;14.60;2.75;;;4.40;99.90;;;;;;5114014;28;20051;-59
2023/01/19 09:55:45;;;;;;;11.25;2.63;;;4.50;99.90;;;;;;5114204;28;20035;-59
2023/01/19 09:58:15;;;;;;;11.27;1.90;;;4.60;99.90;;;;;;5113906;28;20043;-59
2023/01/19 10:00:46;;;;;;;9.55;1.92;;;4.60;99.90;;;;;;5113989;28;20769;-60
2023/01/19 10:03:15;;;;;;;10.50;1.73;;;4.70;99.90;;;;;;5113932;28;20047;-59
2023/01/19 10:05:46;;;;;;;17.35;2.25;;;4.80;99.90;;;;;;5113764;28;20499;-59
2023/01/19 10:08:29;;;;;;;8.85;2.08;;;4.90;99.90;;;;;;5113664;28;20035;-59
2023/01/19 10:10:57;;;;;;;14.80;1.70;;;5.00;99.90;;;;;;5113677;28;20130;-59
2023/01/19 10:13:44;;;;;;;15.90;1.80;;;5.20;99.90;;;;;;5113449;28;20118;-59
2023/01/19 10:16:44;;;;;;;11.13;1.90;;;5.20;99.90;;;;;;5113552;28;20040;-59
2023/01/19 10:19:36;;;;;;;16.98;2.22;;;5.20;99.90;;;;;;5113315;28;20035;-60
2023/01/19 10:22:21;;;;;;;10.68;1.83;;;5.30;99.90;;;;;;5113358;28;20479;-59
2023/01/19 10:24:52;;;;;;;12.27;1.98;;;5.30;99.90;;;;;;5113284;28;20044;-60
2023/01/19 10:27:23;;;;;;;10.57;1.60;;;5.20;99.90;;;;;;5113372;28;20452;-59
2023/01/19 10:29:48;;;;;;;13.35;2.33;;;5.30;99.90;;;;;;5113233;28;20046;-59
2023/01/19 10:32:32;;;;;;;10.35;2.30;;;5.40;99.90;;;;;;5113429;28;20044;-59
2023/01/19 10:34:58;;;;;;;12.13;1.60;;;5.50;99.90;;;;;;5113697;28;20047;-59
2023/01/19 10:37:36;;;;;;;9.88;2.03;;;5.50;99.90;;;;;;5113449;28;20135;-59
2023/01/19 10:40:08;;;;;;;7.85;1.75;;;5.60;99.90;;;;;;5113064;28;20035;-59
2023/01/19 10:42:35;;;;;;;14.50;2.25;;;5.60;99.90;;;;;;5112935;28;20063;-59
2023/01/19 10:45:00;;;;;;;10.45;1.70;;;5.70;99.90;;;;;;5113105;28;20038;-60
2023/01/19 10:47:33;;;;;;;12.73;1.50;;;5.70;99.90;;;;;;5112824;28;20031;-59
2023/01/19 10:49:58;;;;;;;9.68;1.90;;;5.70;99.90;;;;;;5112918;28;20077;-59
2023/01/19 10:52:34;;;;;;;10.95;2.15;;;5.80;99.90;;;;;;5112797;28;20432;-59
2023/01/19 10:55:03;;;;;;;12.50;2.28;;;5.80;99.90;;;;;;5112788;28;20078;-59
2023/01/19 10:57:36;;;;;;;11.70;2.22;;;5.80;99.90;;;;;;5112844;28;20028;-59
2023/01/19 11:00:04;;;;;;;7.20;1.70;;;5.90;99.90;;;;;;5112832;28;20047;-59
2023/01/19 11:02:31;;;;;;;11.75;1.95;;;6.00;99.90;;;;;;5112629;28;20032;-59
2023/01/19 11:04:57;;;;;;;11.88;2.08;;;6.10;99.90;;;;;;5107355;28;20489;-59
2023/01/19 11:07:32;;;;;;;11.90;1.80;;;6.00;99.90;;;;;;5109091;28;20477;-59
2023/01/19 11:10:14;;;;;;;13.32;2.55;;;6.20;99.90;;;;;;5112961;28;20035;-59
2023/01/19 11:13:00;;;;;;;14.48;2.00;;;6.30;99.90;;;;;;5112332;28;20081;-59
2023/01/19 11:15:44;;;;;;;9.85;1.95;;;6.20;99.90;;;;;;5112499;28;20039;-60
2023/01/19 11:18:42;;;;;;;8.98;1.60;;;6.40;99.90;;;;;;5112606;28;20043;-59
2023/01/19 11:21:10;;;;;;;8.85;1.85;;;6.60;99.90;;;;;;5028131;28;20666;-60
2023/01/19 11:23:41;;;;;;;8.68;1.80;;;6.70;99.90;;;;;;5011172;28;20519;-59
2023/01/19 11:26:14;;;;;;;13.45;2.33;;;6.90;99.90;;;;;;5028062;28;20037;-59
2023/01/19 11:28:46;;;;;;;9.48;1.92;;;7.00;99.90;;;;;;5029718;28;20037;-59
2023/01/19 11:31:17;;;;;;;7.68;1.45;;;7.10;99.90;;;;;;5012758;28;20056;-59
2023/01/19 11:33:52;;;;;;;16.00;2.75;;;7.10;99.90;;;;;;5029630;28;20442;-59
2023/01/19 11:36:20;;;;;;;15.90;1.90;;;7.10;99.90;;;;;;5029631;28;20037;-60
2023/01/19 11:38:51;;;;;;;7.88;1.83;;;6.90;99.90;;;;;;5029572;28;20127;-60
2023/01/19 11:41:25;;;;;;;10.60;1.42;;;7.00;99.90;;;;;;5029525;28;20042;-60
2023/01/19 11:44:18;;;;;;;11.25;2.22;;;7.00;99.90;;;;;;5013275;28;20064;-59
2023/01/19 11:46:49;;;;;;;11.23;1.83;;;7.20;99.90;;;;;;5029674;28;20065;-59
2023/01/19 11:49:41;;;;;;;8.95;1.77;;;7.30;99.90;;;;;;5029391;28;20087;-59
2023/01/19 11:52:39;;;;;;;11.50;2.00;;;7.50;99.90;;;;;;4969093;28;20146;-60
2023/01/19 11:55:36;;;;;;;14.60;1.85;;;7.60;99.90;;;;;;4968709;28;20046;-60
2023/01/19 11:58:04;;;;;;;9.60;1.75;;;7.70;99.90;;;;;;5028944;28;20084;-60
2023/01/19 12:01:04;;;;;;;14.48;1.50;;;7.80;99.90;;;;;;5032596;28;20091;-60
2023/01/19 12:03:38;;;;;;;7.82;1.45;;;8.00;99.90;;;;;;4974581;28;20183;-60
2023/01/19 12:06:09;;;;;;;9.82;1.30;;;8.10;99.90;;;;;;4974644;28;20047;-60
2023/01/19 12:09:24;;;;;;;8.95;1.25;;;8.10;99.90;;;;;;4958624;28;20058;-60
2023/01/19 12:11:57;;;;;;;7.93;1.10;;;8.20;99.90;;;;;;4935976;29;20039;-60
2023/01/19 12:14:46;;;;;;;6.35;1.23;;;8.30;99.90;;;;;;4936002;29;20451;-60
2023/01/19 12:17:28;;;;;;;7.85;1.77;;;8.40;99.90;;;;;;4935969;29;20123;-60
2023/01/19 12:20:02;;;;;;;7.63;1.00;;;8.60;99.90;;;;;;4935759;29;20058;-61
2023/01/19 12:22:29;;;;;;;7.25;1.30;;;8.60;99.90;;;;;;4949388;29;20545;-60
2023/01/19 12:25:03;;;;;;;4.78;1.08;;;8.60;99.90;;;;;;4954926;29;20493;-60
2023/01/19 12:27:39;;;;;;;3.25;0.95;;;8.60;99.90;;;;;;4954856;29;20055;-60
2023/01/19 12:30:19;;;;;;;10.98;2.22;;;8.30;99.90;;;;;;4971195;28;20540;-60
2023/01/19 12:32:45;;;;;;;8.13;1.63;;;7.90;99.90;;;;;;4973813;28;20057;-60
2023/01/19 12:35:48;;;;;;;8.00;1.20;;;7.60;99.90;;;;;;4973925;28;20042;-60
2023/01/19 12:38:51;;;;;;;10.00;1.23;;;7.50;99.90;;;;;;4973903;28;20035;-60
2023/01/19 12:41:32;;;;;;;8.25;1.45;;;7.50;99.90;;;;;;4949055;29;20418;-60
2023/01/19 12:44:10;;;;;;;11.10;1.35;;;7.50;99.90;;;;;;4954646;29;20066;-60
2023/01/19 12:46:48;;;;;;;8.50;1.17;;;7.40;99.90;;;;;;4969871;28;20050;-60
2023/01/19 12:49:31;;;;;;;5.57;0.90;;;7.20;99.90;;;;;;4993312;28;20047;-60
2023/01/19 12:52:18;;;;;;;4.82;1.00;;;7.20;99.90;;;;;;4992104;28;20117;-60
2023/01/19 12:55:07;;;;;;;4.63;1.35;;;7.00;99.90;;;;;;4991074;28;20525;-60
2023/01/19 12:57:59;;;;;;;4.45;0.98;;;7.00;99.90;;;;;;4877992;29;20141;-60
2023/01/19 13:00:25;;;;;;;6.38;1.63;;;6.90;99.90;;;;;;4878620;29;20045;-60
2023/01/19 13:02:53;;;;;;;7.63;1.20;;;6.80;99.90;;;;;;4891982;29;20057;-60
2023/01/19 13:05:30;;;;;;;9.83;1.43;;;6.70;99.90;;;;;;4897192;29;20052;-60
2023/01/19 13:08:03;;;;;;;5.93;1.13;;;6.60;99.90;;;;;;4897215;29;20518;-60
2023/01/19 13:10:59;;;;;;;8.35;1.40;;;6.60;99.90;;;;;;4897074;29;20056;-60
2023/01/19 13:13:35;;;;;;;4.63;1.17;;;6.60;99.90;;;;;;4897093;29;20147;-60
2023/01/19 13:16:19;;;;;;;11.60;1.45;;;6.50;99.90;;;;;;4897024;29;20475;-60
2023/01/19 13:18:52;;;;;;;4.88;0.93;;;6.40;99.90;;;;;;5011347;28;20046;-60
2023/01/19 13:21:27;;;;;;;4.20;1.17;;;6.30;99.90;;;;;;5028062;28;20516;-62